Time;durP1;ratioP1;P1;durP2;ratioP2;P2;SDS_P1;SDS_P2;PMS_P1;PMS_P2;Temp;Humidity;BMP_temperature;BMP_pressure;BME280_temperature;BME280_humidity;BME280_pressure;Samples;Min_cycle;Max_cycle;Signal;HPM_P1;HPM_P2
2023/07/31 00:01:16;;;;;;;1.50;1.40;;;;;;;19.03;100.00;99216.97;5087775;28;20198;-76
2023/07/31 00:03:42;;;;;;;1.77;1.60;;;;;;;19.02;100.00;99219.97;5106430;28;20675;-76
2023/07/31 00:06:09;;;;;;;1.70;1.53;;;;;;;18.97;100.00;99215.41;5107695;28;20250;-75
2023/07/31 00:08:36;;;;;;;2.77;1.80;;;;;;;18.94;100.00;99217.88;5106546;28;20196;-76
2023/07/31 00:11:02;;;;;;;1.73;1.53;;;;;;;19.01;100.00;99219.16;5105997;28;20201;-76
2023/07/31 00:13:29;;;;;;;1.67;1.50;;;;;;;18.96;100.00;99221.91;5085256;28;20187;-77
2023/07/31 00:15:56;;;;;;;2.80;1.67;;;;;;;18.85;100.00;99223.88;5094114;28;20207;-78
2023/07/31 00:18:22;;;;;;;1.97;1.60;;;;;;;18.75;100.00;99234.84;5109166;28;20572;-77
2023/07/31 00:20:49;;;;;;;1.60;1.50;;;;;;;18.65;100.00;99231.38;5108573;28;20196;-76
2023/07/31 00:23:16;;;;;;;5.13;2.57;;;;;;;18.61;100.00;99239.28;5100255;28;20258;-76
2023/07/31 00:25:42;;;;;;;1.50;1.40;;;;;;;18.59;100.00;99235.22;5105468;28;20203;-76
2023/07/31 00:28:10;;;;;;;1.60;1.50;;;;;;;18.49;100.00;99238.75;5102197;28;20200;-76
2023/07/31 00:30:38;;;;;;;1.77;1.50;;;;;;;18.56;100.00;99230.34;5086131;28;20186;-75
2023/07/31 00:33:04;;;;;;;2.23;1.40;;;;;;;18.51;100.00;99238.50;5084833;28;20197;-77
2023/07/31 00:35:31;;;;;;;1.60;1.50;;;;;;;18.48;100.00;99240.66;5104114;28;20188;-75
2023/07/31 00:37:58;;;;;;;1.80;1.70;;;;;;;18.49;100.00;99242.28;5094159;28;20556;-75
2023/07/31 00:40:25;;;;;;;1.87;1.77;;;;;;;18.46;100.00;99242.88;5110605;28;20668;-75
2023/07/31 00:42:52;;;;;;;1.50;1.40;;;;;;;18.45;100.00;99235.00;5112406;28;20666;-77
2023/07/31 00:45:18;;;;;;;1.40;1.30;;;;;;;18.48;100.00;99234.44;5102033;28;20651;-76
2023/07/31 00:47:45;;;;;;;2.17;1.50;;;;;;;18.49;100.00;99231.44;5092925;28;20206;-76
2023/07/31 00:50:13;;;;;;;1.53;1.40;;;;;;;18.50;100.00;99234.97;5103795;28;20259;-77
2023/07/31 00:52:40;;;;;;;1.80;1.63;;;;;;;18.46;100.00;99245.56;5068937;28;20202;-77
2023/07/31 00:55:07;;;;;;;1.70;1.40;;;;;;;18.46;100.00;99240.16;5089339;28;20203;-76
2023/07/31 00:57:34;;;;;;;1.97;1.57;;;;;;;18.45;100.00;99235.00;5078236;28;20213;-76
2023/07/31 01:00:01;;;;;;;1.40;1.30;;;;;;;18.39;100.00;99236.91;5075307;28;20201;-76
2023/07/31 01:02:28;;;;;;;1.70;1.60;;;;;;;18.37;100.00;99238.31;5107657;28;20274;-76
2023/07/31 01:04:55;;;;;;;3.07;1.60;;;;;;;18.33;100.00;99234.53;5106943;28;20196;-77
2023/07/31 01:07:42;;;;;;;1.60;1.50;;;;;;;18.31;100.00;99240.22;5108914;28;20651;-79
2023/07/31 01:10:18;;;;;;;1.60;1.43;;;;;;;18.40;100.00;99243.16;5090437;28;20544;-78
2023/07/31 01:12:46;;;;;;;1.60;1.50;;;;;;;18.41;100.00;99229.31;5080747;28;20210;-77
2023/07/31 01:15:15;;;;;;;1.73;1.43;;;;;;;18.43;100.00;99224.41;5109195;28;20202;-76
2023/07/31 01:17:42;;;;;;;2.23;1.40;;;;;;;18.55;100.00;99217.88;5083976;28;20211;-77
2023/07/31 01:20:17;;;;;;;1.97;1.20;;;;;;;18.56;100.00;99227.66;5107008;28;20264;-77
2023/07/31 01:23:09;;;;;;;2.30;1.30;;;;;;;18.65;100.00;99224.06;5086602;28;20253;-77
2023/07/31 01:25:54;;;;;;;1.63;1.23;;;;;;;18.58;100.00;99220.84;5106681;28;20188;-76
2023/07/31 01:28:28;;;;;;;1.73;1.40;;;;;;;18.48;100.00;99218.97;5100173;28;20195;-76
2023/07/31 01:30:59;;;;;;;3.23;1.20;;;;;;;18.43;100.00;99218.19;5079383;28;20260;-77
2023/07/31 01:33:25;;;;;;;1.57;1.30;;;;;;;18.32;100.00;99219.34;5094137;28;20215;-76
2023/07/31 01:35:52;;;;;;;1.80;1.40;;;;;;;18.30;100.00;99221.50;5078878;28;20199;-76
2023/07/31 01:38:22;;;;;;;1.43;1.33;;;;;;;18.32;100.00;99224.78;5076824;28;20633;-77
2023/07/31 01:40:53;;;;;;;3.70;1.60;;;;;;;18.26;100.00;99215.84;5077637;28;20249;-76
2023/07/31 01:43:20;;;;;;;2.70;1.37;;;;;;;18.17;100.00;99217.53;5076827;28;20609;-77
2023/07/31 01:45:46;;;;;;;1.97;1.47;;;;;;;18.14;100.00;99211.84;5080497;28;20198;-77
2023/07/31 01:48:13;;;;;;;1.40;1.30;;;;;;;18.11;100.00;99202.38;5114155;28;20190;-76
2023/07/31 01:50:40;;;;;;;2.30;1.40;;;;;;;18.17;100.00;99208.56;5107118;28;20695;-76
2023/07/31 01:53:07;;;;;;;2.13;1.30;;;;;;;18.20;100.00;99195.25;5102251;28;20195;-78
2023/07/31 01:55:34;;;;;;;1.63;1.30;;;;;;;18.14;100.00;99201.81;5115537;28;20252;-77
2023/07/31 01:58:00;;;;;;;2.03;1.50;;;;;;;18.16;100.00;99196.09;5111625;28;20213;-77
2023/07/31 02:00:27;;;;;;;3.30;1.50;;;;;;;18.24;100.00;99187.41;5098440;28;20629;-76
2023/07/31 02:02:54;;;;;;;2.13;1.57;;;;;;;18.22;100.00;99195.81;5104294;28;20216;-77
2023/07/31 02:05:21;;;;;;;2.37;1.40;;;;;;;18.09;100.00;99195.63;5106264;28;20195;-76
2023/07/31 02:07:47;;;;;;;1.53;1.37;;;;;;;18.13;100.00;99200.19;5093299;28;20235;-76
2023/07/31 02:10:14;;;;;;;1.50;1.40;;;;;;;18.21;100.00;99196.88;5089557;28;20195;-77
2023/07/31 02:12:41;;;;;;;1.50;1.40;;;;;;;18.20;100.00;99205.28;5094863;28;20195;-77
2023/07/31 02:15:08;;;;;;;1.60;1.50;;;;;;;18.17;100.00;99206.69;5095100;28;20653;-76
2023/07/31 02:17:35;;;;;;;2.33;1.20;;;;;;;18.10;100.00;99206.19;5091133;28;20220;-76
2023/07/31 02:20:02;;;;;;;2.40;1.43;;;;;;;18.14;100.00;99206.44;5093267;28;20191;-77
2023/07/31 02:22:29;;;;;;;2.80;1.70;;;;;;;18.36;100.00;99206.84;5093220;28;20193;-76
2023/07/31 02:24:55;;;;;;;2.20;1.83;;;;;;;18.33;100.00;99207.41;5094483;28;20650;-76
2023/07/31 02:27:27;;;;;;;3.57;1.97;;;;;;;18.51;100.00;99214.09;5094274;28;20692;-76
2023/07/31 02:29:55;;;;;;;2.37;1.80;;;;;;;18.39;100.00;99212.50;5088702;28;20207;-77
2023/07/31 02:32:21;;;;;;;2.53;1.80;;;;;;;18.25;100.00;99213.41;5092841;28;20279;-76
2023/07/31 02:34:48;;;;;;;1.90;1.70;;;;;;;18.24;100.00;99218.03;5086133;28;20203;-76
2023/07/31 02:37:16;;;;;;;2.07;1.80;;;;;;;18.18;100.00;99218.34;5090799;28;20211;-77
2023/07/31 02:39:42;;;;;;;2.10;1.67;;;;;;;18.18;100.00;99215.63;5090492;28;20198;-78
2023/07/31 02:42:09;;;;;;;1.93;1.70;;;;;;;18.13;100.00;99223.78;5093970;28;20198;-76
2023/07/31 02:44:36;;;;;;;2.03;1.90;;;;;;;18.13;100.00;99232.72;5089742;28;20285;-77
2023/07/31 02:47:03;;;;;;;3.10;1.87;;;;;;;18.12;100.00;99233.81;5091003;28;20248;-77
2023/07/31 02:49:29;;;;;;;2.20;1.90;;;;;;;18.06;100.00;99229.50;5089695;28;20208;-77
2023/07/31 02:51:56;;;;;;;1.73;1.53;;;;;;;18.06;100.00;99234.13;5092473;28;20239;-77
2023/07/31 02:54:23;;;;;;;3.73;2.00;;;;;;;18.07;100.00;99222.16;5089281;28;20232;-77
2023/07/31 02:56:50;;;;;;;1.63;1.53;;;;;;;17.89;100.00;99227.13;5091917;28;20563;-76
2023/07/31 02:59:17;;;;;;;1.83;1.57;;;;;;;17.82;100.00;99231.25;5094182;28;20224;-76
2023/07/31 03:01:43;;;;;;;2.53;1.80;;;;;;;17.94;100.00;99234.44;5093836;28;20665;-76
2023/07/31 03:04:10;;;;;;;3.27;1.90;;;;;;;17.89;100.00;99242.59;5092697;28;20193;-76
2023/07/31 03:06:37;;;;;;;1.83;1.73;;;;;;;17.84;100.00;99239.88;5083618;28;20280;-77
2023/07/31 03:09:05;;;;;;;1.90;1.70;;;;;;;17.88;100.00;99243.66;5066794;28;20203;-77
2023/07/31 03:11:31;;;;;;;2.00;1.80;;;;;;;17.93;100.00;99243.66;5074916;28;20248;-76
2023/07/31 03:13:58;;;;;;;3.60;2.13;;;;;;;17.91;100.00;99235.81;5063459;28;20201;-77
2023/07/31 03:16:25;;;;;;;2.27;2.07;;;;;;;17.93;100.00;99235.50;5070111;28;20650;-77
2023/07/31 03:18:51;;;;;;;2.20;1.93;;;;;;;18.03;100.00;99236.28;5059372;28;20652;-78
2023/07/31 03:21:18;;;;;;;2.50;1.73;;;;;;;18.03;100.00;99243.63;5071679;28;20259;-77
2023/07/31 03:23:45;;;;;;;2.30;2.10;;;;;;;18.14;100.00;99242.50;5061925;28;20205;-78
2023/07/31 03:26:12;;;;;;;2.30;2.10;;;;;;;18.32;100.00;99241.03;5071727;28;20189;-78
2023/07/31 03:28:38;;;;;;;2.10;1.70;;;;;;;18.44;100.00;99246.94;5071720;28;20278;-78
2023/07/31 03:31:05;;;;;;;1.90;1.63;;;;;;;18.40;100.00;99246.69;5073238;28;20312;-78
2023/07/31 03:33:32;;;;;;;2.10;1.90;;;;;;;18.47;100.00;99246.38;5073559;28;20243;-80
2023/07/31 03:35:59;;;;;;;2.67;1.93;;;;;;;18.37;100.00;99249.97;5070409;28;20262;-80
2023/07/31 03:38:26;;;;;;;1.77;1.67;;;;;;;18.50;100.00;99248.53;5073225;28;20201;-80
2023/07/31 03:40:53;;;;;;;1.70;1.60;;;;;;;18.54;100.00;99248.81;5066414;28;20209;-80
2023/07/31 03:43:19;;;;;;;3.20;1.83;;;;;;;18.44;100.00;99250.47;5073137;28;20194;-77
2023/07/31 03:45:46;;;;;;;1.80;1.63;;;;;;;18.57;100.00;99246.34;5073084;28;20182;-81
2023/07/31 03:48:15;;;;;;;3.03;1.83;;;;;;;18.58;100.00;99253.38;5072774;28;20239;-78
2023/07/31 03:50:42;;;;;;;4.03;1.83;;;;;;;18.48;100.00;99245.28;5068814;28;20177;-79
2023/07/31 03:53:08;;;;;;;2.27;1.60;;;;;;;18.55;100.00;99250.44;5049151;28;20212;-77
2023/07/31 03:55:35;;;;;;;2.40;1.67;;;;;;;18.45;100.00;99257.50;5072536;28;20196;-77
2023/07/31 03:58:02;;;;;;;3.07;1.80;;;;;;;18.56;100.00;99260.19;5072467;28;20207;-78
2023/07/31 04:00:28;;;;;;;3.77;1.80;;;;;;;18.66;100.00;99266.38;5070077;28;20717;-76
2023/07/31 04:02:55;;;;;;;3.83;1.90;;;;;;;18.85;100.00;99258.34;5072370;28;20208;-80
2023/07/31 04:05:22;;;;;;;3.07;1.60;;;;;;;19.07;100.00;99257.94;5071764;28;20771;-78
2023/07/31 04:07:49;;;;;;;4.00;1.73;;;;;;;19.60;100.00;99254.22;5071339;28;20236;-78
2023/07/31 04:10:15;;;;;;;2.37;1.50;;;;;;;20.01;100.00;99257.31;5064679;28;20571;-78
2023/07/31 04:12:42;;;;;;;4.87;1.93;;;;;;;20.21;100.00;99258.94;5066134;28;20195;-78
2023/07/31 04:15:09;;;;;;;2.33;1.70;;;;;;;19.99;100.00;99259.50;5066904;28;20250;-78
2023/07/31 04:17:36;;;;;;;2.43;1.60;;;;;;;19.91;100.00;99253.88;5065288;28;20218;-77
2023/07/31 04:20:03;;;;;;;2.30;1.50;;;;;;;19.88;100.00;99257.97;5063229;28;20551;-78
2023/07/31 04:22:29;;;;;;;1.70;1.60;;;;;;;19.72;100.00;99249.22;5066101;28;20203;-78
2023/07/31 04:24:56;;;;;;;2.07;1.60;;;;;;;19.65;100.00;99254.16;5063797;28;20240;-77
2023/07/31 04:27:23;;;;;;;2.03;1.50;;;;;;;19.61;100.00;99247.69;5063825;28;20206;-78
2023/07/31 04:29:50;;;;;;;2.47;1.50;;;;;;;19.68;100.00;99244.63;5060376;28;20194;-78
2023/07/31 04:32:17;;;;;;;2.83;1.80;;;;;;;19.77;100.00;99242.91;5061555;28;20221;-78
2023/07/31 04:34:44;;;;;;;2.47;1.60;;;;;;;19.95;100.00;99257.66;5062511;28;20206;-78
2023/07/31 04:37:10;;;;;;;3.20;1.80;;;;;;;20.08;100.00;99262.38;5065452;28;20205;-78
2023/07/31 04:39:37;;;;;;;3.50;1.90;;;;;;;20.22;100.00;99261.38;5065144;28;20196;-78
2023/07/31 04:42:04;;;;;;;2.87;1.43;;;;;;;20.38;100.00;99266.66;5064623;28;20204;-78
2023/07/31 04:44:31;;;;;;;2.70;1.80;;;;;;;20.33;100.00;99266.72;5065194;28;20792;-78
2023/07/31 04:46:57;;;;;;;1.90;1.50;;;;;;;20.50;100.00;99276.00;5064932;28;20196;-78
2023/07/31 04:49:24;;;;;;;2.17;1.60;;;;;;;20.67;100.00;99268.13;5065780;28;20332;-78
2023/07/31 04:51:51;;;;;;;1.60;1.50;;;;;;;20.59;100.00;99268.81;5068046;28;20243;-77
2023/07/31 04:54:17;;;;;;;2.30;1.60;;;;;;;20.56;100.00;99268.59;5071447;28;20253;-77
2023/07/31 04:56:44;;;;;;;2.63;1.63;;;;;;;20.83;100.00;99271.47;5070702;28;20196;-78
2023/07/31 04:59:11;;;;;;;4.00;1.67;;;;;;;21.10;100.00;99279.75;5066162;28;20549;-77
2023/07/31 05:01:37;;;;;;;2.17;1.50;;;;;;;21.14;100.00;99276.47;5063411;28;20208;-78
2023/07/31 05:04:04;;;;;;;2.53;1.50;;;;;;;21.16;100.00;99277.78;5067034;28;20730;-77
2023/07/31 05:06:31;;;;;;;2.13;1.57;;;;;;;21.27;100.00;99281.16;5070037;28;20225;-78
2023/07/31 05:08:57;;;;;;;2.90;1.73;;;;;;;21.39;100.00;99281.47;5069708;28;20569;-79
2023/07/31 05:11:24;;;;;;;2.63;1.57;;;;;;;21.43;100.00;99275.13;5069471;28;20193;-78
2023/07/31 05:13:51;;;;;;;2.00;1.58;;;;;;;21.44;100.00;99278.69;5071637;28;20193;-78
2023/07/31 05:16:17;;;;;;;1.90;1.70;;;;;;;21.55;100.00;99284.78;5072395;28;20609;-78
2023/07/31 05:18:44;;;;;;;2.53;1.63;;;;;;;21.66;100.00;99280.72;5075674;28;20251;-77
2023/07/31 05:21:11;;;;;;;2.97;1.70;;;;;;;21.71;100.00;99286.09;5075536;28;20234;-78
2023/07/31 05:23:37;;;;;;;2.28;1.45;;;;;;;21.72;100.00;99285.81;5075644;28;20251;-78
2023/07/31 05:26:09;;;;;;;2.78;1.80;;;;;;;21.59;100.00;99288.50;5075222;28;20203;-77
2023/07/31 05:28:36;;;;;;;3.50;1.67;;;;;;;21.50;100.00;99288.38;5075587;28;20189;-78
2023/07/31 05:31:04;;;;;;;2.30;1.60;;;;;;;21.59;100.00;99293.97;5075216;28;20303;-77
2023/07/31 05:33:31;;;;;;;2.67;1.80;;;;;;;21.60;100.00;99301.03;5068555;28;20200;-78
2023/07/31 05:35:58;;;;;;;4.32;1.58;;;;;;;21.62;100.00;99294.16;5068286;28;20663;-78
2023/07/31 05:38:24;;;;;;;2.03;1.80;;;;;;;21.68;100.00;99298.41;5075153;28;20553;-78
2023/07/31 05:40:51;;;;;;;1.92;1.52;;;;;;;21.77;100.00;99303.97;5075513;28;20249;-78
2023/07/31 05:43:18;;;;;;;2.70;1.60;;;;;;;21.65;100.00;99292.78;5074744;28;20241;-79
2023/07/31 05:45:44;;;;;;;2.58;1.50;;;;;;;21.61;100.00;99292.53;5075319;28;20196;-78
2023/07/31 05:48:11;;;;;;;4.25;1.73;;;;;;;21.52;100.00;99297.06;5075172;28;20676;-78
2023/07/31 05:50:40;;;;;;;3.72;2.17;;;;;;;21.37;100.00;99292.66;5074868;28;20656;-78
2023/07/31 05:53:08;;;;;;;2.22;1.67;;;;;;;21.65;100.00;99300.94;5074852;28;20682;-79
2023/07/31 05:55:34;;;;;;;3.17;1.73;;;;;;;21.63;100.00;99298.50;5074505;28;20185;-79
2023/07/31 05:58:01;;;;;;;3.63;1.60;;;;;;;21.56;100.00;99292.63;5070716;28;20729;-79
2023/07/31 06:00:28;;;;;;;2.97;1.60;;;;;;;21.60;100.00;99298.31;5072247;28;20237;-78
2023/07/31 06:02:55;;;;;;;1.92;1.42;;;;;;;21.55;100.00;99296.47;5068012;28;20227;-80
2023/07/31 06:05:22;;;;;;;2.33;1.63;;;;;;;21.70;100.00;99304.38;5071556;28;20220;-79
2023/07/31 06:07:48;;;;;;;2.05;1.55;;;;;;;21.68;100.00;99298.41;5062967;28;20229;-79
2023/07/31 06:10:15;;;;;;;3.38;1.50;;;;;;;21.80;100.00;99301.47;5058732;28;20197;-80
2023/07/31 06:12:42;;;;;;;1.60;1.50;;;;;;;21.84;100.00;99293.47;5063692;28;20264;-80
2023/07/31 06:15:09;;;;;;;2.95;1.30;;;;;;;21.99;100.00;99295.13;5055983;28;20195;-79
2023/07/31 06:17:36;;;;;;;3.05;1.52;;;;;;;22.31;100.00;99295.03;5054042;28;20574;-79
2023/07/31 06:20:05;;;;;;;4.93;1.60;;;;;;;22.42;100.00;99288.25;5054081;28;20198;-78
2023/07/31 06:22:31;;;;;;;4.28;1.77;;;;;;;22.43;100.00;99289.06;5055447;28;20201;-80
2023/07/31 06:24:58;;;;;;;2.28;1.23;;;;;;;22.45;100.00;99290.38;5062437;28;20201;-77
2023/07/31 06:27:25;;;;;;;1.77;1.20;;;;;;;22.50;100.00;99292.19;5053531;28;20259;-78
2023/07/31 06:29:52;;;;;;;2.50;1.30;;;;;;;22.66;100.00;99291.56;5053757;28;20198;-77
2023/07/31 06:32:18;;;;;;;4.28;1.60;;;;;;;22.67;98.47;99290.44;5067934;28;20270;-77
2023/07/31 06:34:45;;;;;;;3.83;1.70;;;;;;;22.81;97.00;99287.72;5074198;28;20193;-78
2023/07/31 06:37:12;;;;;;;3.50;1.48;;;;;;;22.68;97.59;99291.22;5067849;28;20702;-78
2023/07/31 06:39:38;;;;;;;2.65;1.50;;;;;;;22.76;95.98;99293.28;5068041;28;20197;-77
2023/07/31 06:42:05;;;;;;;3.75;2.15;;;;;;;22.71;94.04;99280.56;5062372;28;20652;-77
2023/07/31 06:44:32;;;;;;;3.22;1.63;;;;;;;22.89;94.07;99289.72;5065662;28;20196;-77
2023/07/31 06:46:59;;;;;;;2.15;1.30;;;;;;;22.93;92.69;99287.16;5062781;28;20200;-76
2023/07/31 06:49:25;;;;;;;4.00;1.33;;;;;;;22.98;92.85;99292.50;5061027;28;20205;-77
2023/07/31 06:51:52;;;;;;;2.30;1.25;;;;;;;22.80;91.55;99286.91;5066769;28;20204;-77
2023/07/31 06:54:19;;;;;;;2.78;1.48;;;;;;;22.77;92.40;99286.69;5064877;28;20193;-77
2023/07/31 06:56:45;;;;;;;4.38;1.50;;;;;;;22.83;90.41;99289.00;5072953;28;20182;-77
2023/07/31 06:59:12;;;;;;;2.58;1.40;;;;;;;22.71;91.10;99286.03;5061712;28;20338;-77
2023/07/31 07:01:39;;;;;;;4.40;1.60;;;;;;;23.04;92.25;99288.53;5077337;28;20205;-77
2023/07/31 07:04:05;;;;;;;3.55;1.50;;;;;;;23.20;88.77;99281.56;5070995;28;20193;-78
2023/07/31 07:06:32;;;;;;;2.53;1.30;;;;;;;23.06;88.53;99267.16;5070541;28;20230;-77
2023/07/31 07:08:59;;;;;;;5.45;1.65;;;;;;;22.66;90.56;99290.75;5068752;28;20613;-77
2023/07/31 07:11:26;;;;;;;2.75;1.50;;;;;;;22.58;90.36;99275.91;5077732;28;20189;-78
2023/07/31 07:13:52;;;;;;;2.55;1.60;;;;;;;22.39;90.28;99278.78;5073538;28;20194;-77
2023/07/31 07:16:19;;;;;;;1.80;1.33;;;;;;;22.28;92.22;99290.19;5073430;28;20189;-78
2023/07/31 07:18:46;;;;;;;3.03;1.50;;;;;;;22.36;92.09;99281.28;5073379;28;20232;-78
2023/07/31 07:21:29;;;;;;;3.40;1.50;;;;;;;22.46;90.37;99289.25;5073151;28;20217;-77
2023/07/31 07:23:56;;;;;;;2.40;1.38;;;;;;;22.74;88.54;99279.94;5073295;28;20207;-77
2023/07/31 07:26:23;;;;;;;5.93;1.70;;;;;;;22.66;89.29;99267.00;5072824;28;20189;-77
2023/07/31 07:28:49;;;;;;;2.00;1.23;;;;;;;22.90;89.60;99274.13;5071814;28;20611;-76
2023/07/31 07:31:16;;;;;;;2.67;1.50;;;;;;;23.16;86.35;99272.38;5072791;28;20234;-76
2023/07/31 07:33:43;;;;;;;2.15;1.40;;;;;;;23.30;85.56;99262.19;5073441;28;20220;-78
2023/07/31 07:36:10;;;;;;;2.63;1.38;;;;;;;23.41;84.68;99265.50;5069396;28;20221;-78
2023/07/31 07:38:38;;;;;;;5.40;1.40;;;;;;;23.42;82.23;99258.91;5071361;28;20274;-77
2023/07/31 07:41:05;;;;;;;2.97;1.13;;;;;;;23.23;82.84;99259.13;5071391;28;20206;-78
2023/07/31 07:43:31;;;;;;;2.20;1.27;;;;;;;23.43;83.85;99260.50;5072154;28;20194;-78
2023/07/31 07:45:58;;;;;;;2.60;1.33;;;;;;;23.47;81.42;99256.06;5070420;28;20563;-78
2023/07/31 07:48:25;;;;;;;3.25;1.50;;;;;;;23.39;79.16;99248.59;5070579;28;20196;-79
2023/07/31 07:50:52;;;;;;;3.00;1.20;;;;;;;23.76;78.85;99264.56;5071899;28;20189;-78
2023/07/31 07:53:18;;;;;;;3.83;1.42;;;;;;;23.55;78.30;99249.84;5072301;28;20727;-80
2023/07/31 07:55:45;;;;;;;3.05;1.35;;;;;;;23.58;77.74;99247.28;5072343;28;20244;-79
2023/07/31 07:58:12;;;;;;;2.58;1.30;;;;;;;23.65;78.09;99257.78;5072660;28;20217;-78
2023/07/31 08:00:39;;;;;;;2.65;1.30;;;;;;;23.55;76.13;99258.03;5072135;28;20221;-77
2023/07/31 08:03:06;;;;;;;2.97;1.15;;;;;;;23.89;76.58;99251.94;5072483;28;20199;-78
2023/07/31 08:05:34;;;;;;;2.63;1.52;;;;;;;23.94;74.26;99258.03;5071979;28;20193;-77
2023/07/31 08:08:01;;;;;;;2.67;1.45;;;;;;;23.95;72.89;99250.66;5063130;28;20193;-77
2023/07/31 08:10:27;;;;;;;3.53;1.55;;;;;;;23.84;73.03;99249.34;5062697;28;20607;-77
2023/07/31 08:12:54;;;;;;;2.67;1.13;;;;;;;23.93;72.87;99253.72;5070878;28;20191;-77
2023/07/31 08:15:21;;;;;;;1.98;1.40;;;;;;;24.14;71.80;99254.75;5071027;28;20224;-78
2023/07/31 08:17:47;;;;;;;2.63;1.60;;;;;;;24.34;70.94;99252.56;5070550;28;20636;-78
2023/07/31 08:20:14;;;;;;;2.70;1.55;;;;;;;24.41;70.75;99245.50;5070571;28;20211;-78
2023/07/31 08:22:41;;;;;;;3.25;1.20;;;;;;;24.31;70.40;99261.44;5069011;28;20204;-77
2023/07/31 08:25:08;;;;;;;2.92;1.30;;;;;;;24.14;70.99;99252.00;5072019;28;20648;-78
2023/07/31 08:27:34;;;;;;;2.80;1.25;;;;;;;24.06;71.51;99249.25;5070444;28;20258;-78
2023/07/31 08:30:01;;;;;;;4.63;1.20;;;;;;;24.26;71.89;99251.44;5071532;28;20183;-77
2023/07/31 08:32:28;;;;;;;2.85;1.40;;;;;;;24.23;71.28;99259.47;5068226;28;20279;-78
2023/07/31 08:34:54;;;;;;;1.85;1.10;;;;;;;24.05;69.66;99253.91;5071880;28;20188;-78
2023/07/31 08:37:21;;;;;;;3.13;1.17;;;;;;;23.97;68.86;99254.69;5071653;28;20681;-77
2023/07/31 08:39:48;;;;;;;2.95;1.10;;;;;;;23.88;68.76;99247.59;5071636;28;20275;-77
2023/07/31 08:42:15;;;;;;;2.78;1.30;;;;;;;23.97;69.87;99251.16;5068713;28;20254;-78
2023/07/31 08:44:42;;;;;;;2.20;1.33;;;;;;;23.95;70.45;99254.19;5071466;28;20189;-77
2023/07/31 08:47:09;;;;;;;2.92;1.50;;;;;;;24.06;70.45;99250.06;5049762;28;20247;-77
2023/07/31 08:49:37;;;;;;;3.92;1.27;;;;;;;24.13;70.75;99246.84;5067560;28;20197;-77
2023/07/31 08:52:04;;;;;;;3.28;1.23;;;;;;;24.18;70.33;99243.19;5071030;28;20188;-76
2023/07/31 08:54:32;;;;;;;2.83;1.40;;;;;;;24.34;69.25;99252.56;5071524;28;20199;-78
2023/07/31 08:57:00;;;;;;;3.05;1.30;;;;;;;24.22;70.87;99244.97;5071570;28;20593;-77
2023/07/31 08:59:31;;;;;;;2.80;1.35;;;;;;;24.27;71.96;99246.75;5071513;28;20691;-77
2023/07/31 09:02:01;;;;;;;2.25;1.27;;;;;;;24.38;70.58;99237.13;5071320;28;20192;-77
2023/07/31 09:04:29;;;;;;;1.83;1.23;;;;;;;24.28;69.85;99232.75;5071704;28;20200;-77
2023/07/31 09:07:00;;;;;;;3.22;1.30;;;;;;;24.52;70.17;99232.31;5096510;28;20234;-76
2023/07/31 09:09:27;;;;;;;2.30;1.20;;;;;;;24.81;70.79;99224.25;5091982;28;20187;-77
2023/07/31 09:11:55;;;;;;;2.78;1.48;;;;;;;24.91;70.47;99231.38;5091697;28;20188;-77
2023/07/31 09:14:21;;;;;;;2.47;1.30;;;;;;;24.85;69.62;99217.00;5087721;28;20241;-77
2023/07/31 09:16:53;;;;;;;4.40;1.52;;;;;;;25.01;68.40;99227.50;5092132;28;20267;-77
2023/07/31 09:19:29;;;;;;;3.20;1.35;;;;;;;24.77;69.30;99217.00;5111892;28;20277;-78
2023/07/31 09:21:56;;;;;;;2.28;1.30;;;;;;;24.97;69.10;99219.09;5111766;28;20210;-78
2023/07/31 09:24:28;;;;;;;3.08;1.50;;;;;;;25.18;69.17;99219.25;5107365;28;20219;-78
2023/07/31 09:27:01;;;;;;;2.28;1.60;;;;;;;25.09;68.65;99216.53;5093714;28;20654;-76
2023/07/31 09:29:29;;;;;;;2.22;1.20;;;;;;;25.17;68.71;99215.69;5101179;28;20195;-76
2023/07/31 09:31:57;;;;;;;2.30;1.30;;;;;;;25.21;68.24;99213.91;5093680;28;20216;-76
2023/07/31 09:34:30;;;;;;;1.80;1.20;;;;;;;25.20;67.21;99215.03;5093854;28;20266;-76
2023/07/31 09:37:01;;;;;;;2.53;1.25;;;;;;;25.29;67.75;99202.13;5111798;28;20191;-77
2023/07/31 09:39:29;;;;;;;3.55;1.33;;;;;;;25.36;66.67;99207.91;5096308;28;20216;-78
2023/07/31 09:41:56;;;;;;;2.97;1.73;;;;;;;25.45;67.17;99205.16;5076260;28;20250;-76
2023/07/31 09:44:38;;;;;;;4.07;1.40;;;;;;;25.37;66.50;99204.06;5104649;28;20256;-76
2023/07/31 09:47:05;;;;;;;3.22;1.60;;;;;;;25.27;64.91;99206.31;5097196;28;20192;-77
2023/07/31 09:49:32;;;;;;;3.33;1.42;;;;;;;25.18;66.20;99200.06;5091201;28;20204;-76
2023/07/31 09:51:58;;;;;;;3.45;1.27;;;;;;;24.92;66.13;99192.69;5098323;28;20199;-77
2023/07/31 09:54:25;;;;;;;1.70;1.40;;;;;;;24.85;66.86;99192.34;5094832;28;20191;-77
2023/07/31 09:56:52;;;;;;;2.30;1.30;;;;;;;24.58;68.06;99189.13;5096837;28;20196;-76
2023/07/31 09:59:19;;;;;;;5.18;1.40;;;;;;;24.60;67.05;99184.94;5092939;28;20217;-76
2023/07/31 10:01:50;;;;;;;3.40;1.48;;;;;;;24.76;67.42;99174.31;5096498;28;20250;-77
2023/07/31 10:04:20;;;;;;;2.08;1.50;;;;;;;24.90;67.84;99177.72;5080204;28;20362;-76
2023/07/31 10:06:49;;;;;;;2.80;1.58;;;;;;;25.23;67.25;99177.97;5077591;28;20241;-78
2023/07/31 10:09:16;;;;;;;2.45;1.33;;;;;;;25.49;65.59;99162.22;5067172;28;20637;-76
2023/07/31 10:11:50;;;;;;;2.25;1.40;;;;;;;25.68;66.13;99173.63;5046714;28;20249;-76
2023/07/31 10:14:20;;;;;;;1.92;1.33;;;;;;;25.81;64.27;99171.78;5063415;28;20198;-76
2023/07/31 10:16:47;;;;;;;2.03;1.45;;;;;;;25.88;63.36;99160.28;5067527;28;20205;-76
2023/07/31 10:19:14;;;;;;;2.33;1.20;;;;;;;26.21;63.38;99153.00;5050144;28;20274;-75
2023/07/31 10:21:42;;;;;;;2.17;1.33;;;;;;;26.32;62.85;99153.41;5069024;28;20189;-76
2023/07/31 10:24:09;;;;;;;1.95;1.33;;;;;;;26.39;61.89;99156.41;5067248;28;20196;-76
2023/07/31 10:26:37;;;;;;;1.92;1.35;;;;;;;26.74;61.50;99130.25;5050824;28;20600;-77
2023/07/31 10:29:05;;;;;;;3.30;1.35;;;;;;;27.25;60.31;99133.63;5064938;28;20196;-76
2023/07/31 10:31:32;;;;;;;1.52;1.30;;;;;;;27.92;58.28;99133.09;5062099;28;20213;-77
2023/07/31 10:34:00;;;;;;;1.98;1.38;;;;;;;28.13;57.95;99130.22;5064649;28;20667;-76
2023/07/31 10:36:27;;;;;;;3.05;1.35;;;;;;;27.90;56.89;99125.16;5064586;28;20722;-77
2023/07/31 10:38:55;;;;;;;2.50;1.50;;;;;;;27.71;55.69;99130.47;5073787;28;20251;-76
2023/07/31 10:41:29;;;;;;;3.25;1.30;;;;;;;27.38;55.62;99119.56;5073774;28;20200;-76
2023/07/31 10:44:00;;;;;;;1.55;1.10;;;;;;;27.55;56.35;99116.59;5070590;28;20196;-77
2023/07/31 10:46:28;;;;;;;2.28;1.27;;;;;;;27.59;55.41;99114.75;5052004;28;20208;-76
2023/07/31 10:49:00;;;;;;;3.72;1.20;;;;;;;27.68;54.73;99122.09;5059232;28;20277;-76
2023/07/31 10:51:36;;;;;;;2.85;1.42;;;;;;;27.93;55.00;99116.22;5072283;28;20671;-76
2023/07/31 10:54:14;;;;;;;2.33;1.25;;;;;;;28.05;53.76;99107.13;5073862;28;20193;-76
2023/07/31 10:56:45;;;;;;;2.17;1.30;;;;;;;27.94;52.42;99104.06;5062479;28;20229;-77
2023/07/31 10:59:12;;;;;;;2.80;1.35;;;;;;;27.82;53.08;99103.28;5073824;28;20215;-77
2023/07/31 11:01:57;;;;;;;2.30;1.30;;;;;;;28.28;52.17;99102.75;5062407;28;20194;-76
2023/07/31 11:04:27;;;;;;;1.75;1.40;;;;;;;28.53;52.12;99092.44;5070672;28;20189;-78
2023/07/31 11:06:58;;;;;;;1.25;1.02;;;;;;;28.65;51.25;99097.09;5090799;28;20311;-79
2023/07/31 11:09:33;;;;;;;1.50;1.30;;;;;;;28.40;49.64;99086.19;5080014;28;20280;-77
2023/07/31 11:12:00;;;;;;;2.55;1.40;;;;;;;27.93;50.04;99088.69;5079837;28;20237;-76
2023/07/31 11:14:26;;;;;;;2.15;1.50;;;;;;;27.72;49.02;99081.72;5097720;28;20184;-76
2023/07/31 11:16:53;;;;;;;2.03;1.33;;;;;;;27.68;49.10;99083.56;5105562;28;20196;-76
2023/07/31 11:19:24;;;;;;;2.38;1.30;;;;;;;27.84;50.89;99082.53;5096185;28;20212;-77
2023/07/31 11:21:54;;;;;;;1.70;1.10;;;;;;;27.78;50.34;99080.34;5087123;28;20201;-76
2023/07/31 11:24:20;;;;;;;1.70;1.20;;;;;;;27.93;51.36;99077.69;5105678;28;20646;-77
2023/07/31 11:26:50;;;;;;;1.98;1.27;;;;;;;28.17;50.85;99068.59;5113722;28;20270;-78
2023/07/31 11:29:17;;;;;;;1.77;1.30;;;;;;;27.88;50.79;99069.66;5095622;28;20202;-77
2023/07/31 11:31:44;;;;;;;2.30;1.25;;;;;;;28.10;51.25;99053.75;5110400;28;20587;-76